createdAt,value
2023-12-09T00:02:05.795Z,22.13
2023-12-09T00:04:35.179Z,23.33
2023-12-09T00:07:04.893Z,22.40
2023-12-09T00:09:34.644Z,22.27
2023-12-09T00:12:10.876Z,22.80
2023-12-09T00:14:41.983Z,21.33
2023-12-09T00:17:19.998Z,21.37
2023-12-09T00:19:50.425Z,21.20
2023-12-09T00:22:24.705Z,22.20
2023-12-09T00:24:54.113Z,21.37
2023-12-09T00:27:31.836Z,20.83
2023-12-09T00:30:10.199Z,20.70
2023-12-09T00:32:38.920Z,21.43
2023-12-09T00:35:10.751Z,21.33
2023-12-09T00:37:44.680Z,22.20
2023-12-09T00:40:18.785Z,20.73
2023-12-09T00:42:50.974Z,21.77
2023-12-09T00:45:23.555Z,21.33
2023-12-09T00:47:58.152Z,21.80
2023-12-09T00:50:27.965Z,22.17
2023-12-09T00:53:02.453Z,20.40
2023-12-09T00:55:32.457Z,19.77
2023-12-09T00:58:02.577Z,20.37
2023-12-09T01:00:35.641Z,20.70
2023-12-09T01:03:05.909Z,21.20
2023-12-09T01:05:34.931Z,20.30
2023-12-09T01:08:06.737Z,20.67
2023-12-09T01:10:37.720Z,20.33
2023-12-09T01:13:05.838Z,20.10
2023-12-09T01:15:36.063Z,21.17
2023-12-09T01:18:04.992Z,22.07
2023-12-09T01:20:35.556Z,21.70
2023-12-09T01:23:10.234Z,20.03
2023-12-09T01:25:38.894Z,20.33
2023-12-09T01:28:17.215Z,20.63
2023-12-09T01:30:46.016Z,19.70
2023-12-09T01:33:18.070Z,21.10
2023-12-09T01:35:46.951Z,20.33
2023-12-09T01:38:19.238Z,19.70
2023-12-09T01:40:56.901Z,20.03
2023-12-09T01:43:25.789Z,19.03
2023-12-09T01:46:15.675Z,20.10
2023-12-09T01:49:04.027Z,20.10
2023-12-09T01:51:42.609Z,19.83
2023-12-09T01:54:20.746Z,19.67
2023-12-09T01:56:49.271Z,20.17
2023-12-09T01:59:18.981Z,21.77
2023-12-09T02:01:52.775Z,19.40
2023-12-09T02:04:28.933Z,18.70
2023-12-09T02:06:59.570Z,19.13
2023-12-09T02:09:33.525Z,20.93
2023-12-09T02:12:10.457Z,19.27
2023-12-09T02:14:47.737Z,20.10
2023-12-09T02:17:28.796Z,18.93
2023-12-09T02:20:05.118Z,20.47
2023-12-09T02:22:39.543Z,20.20
2023-12-09T02:25:14.775Z,20.00
2023-12-09T02:27:49.646Z,18.50
2023-12-09T02:30:25.491Z,19.30
2023-12-09T02:32:56.988Z,18.37
2023-12-09T02:35:29.489Z,19.53
2023-12-09T02:38:09.615Z,18.50
2023-12-09T02:40:43.538Z,19.83
2023-12-09T02:43:21.350Z,18.37
2023-12-09T02:45:50.085Z,21.13
2023-12-09T02:48:21.786Z,19.07
2023-12-09T02:50:52.525Z,19.10
2023-12-09T02:53:22.621Z,21.07
2023-12-09T02:56:06.022Z,21.17
2023-12-09T02:58:42.005Z,18.90
2023-12-09T03:01:13.403Z,19.87
2023-12-09T03:03:44.497Z,19.70
2023-12-09T03:06:22.627Z,19.20
2023-12-09T03:08:52.183Z,20.50
2023-12-09T03:11:27.945Z,19.07
2023-12-09T03:14:03.161Z,20.30
2023-12-09T03:16:34.375Z,19.33
2023-12-09T03:19:05.109Z,19.73
2023-12-09T03:21:34.576Z,19.90
2023-12-09T03:24:04.292Z,20.00
2023-12-09T03:26:40.094Z,19.27
2023-12-09T03:29:15.804Z,20.80
2023-12-09T03:31:48.376Z,20.73
2023-12-09T03:34:19.664Z,20.43
2023-12-09T03:36:58.677Z,20.67
2023-12-09T03:39:29.718Z,19.33
2023-12-09T03:42:07.702Z,21.57
2023-12-09T03:44:38.073Z,21.03
2023-12-09T03:47:18.496Z,20.47
2023-12-09T03:49:53.154Z,20.80
2023-12-09T03:52:25.289Z,20.93
2023-12-09T03:54:54.584Z,20.07
2023-12-09T03:57:42.472Z,21.40
2023-12-09T04:00:13.391Z,20.13
2023-12-09T04:02:44.169Z,21.83
2023-12-09T04:05:18.600Z,20.47
2023-12-09T04:07:50.309Z,20.90
2023-12-09T04:10:21.336Z,21.20
2023-12-09T04:12:53.960Z,21.00
2023-12-09T04:15:25.460Z,22.77
2023-12-09T04:17:54.138Z,20.13
2023-12-09T04:20:27.232Z,19.97
2023-12-09T04:22:55.693Z,20.63
2023-12-09T04:25:26.405Z,20.73
2023-12-09T04:27:58.499Z,21.23
2023-12-09T04:30:28.862Z,21.87
2023-12-09T04:32:59.229Z,21.53
2023-12-09T04:35:29.931Z,22.43
2023-12-09T04:38:02.707Z,20.00
2023-12-09T04:40:35.266Z,21.00
2023-12-09T04:43:11.330Z,21.87
2023-12-09T04:45:40.870Z,21.13
2023-12-09T04:48:10.092Z,19.30
2023-12-09T04:50:42.656Z,20.87
2023-12-09T04:53:13.866Z,19.10
2023-12-09T04:55:44.719Z,21.70
2023-12-09T04:58:18.204Z,21.70
2023-12-09T05:00:56.670Z,20.20
2023-12-09T05:03:34.429Z,19.93
2023-12-09T05:06:08.014Z,20.67
2023-12-09T05:08:46.922Z,18.67
2023-12-09T05:11:23.631Z,21.70
2023-12-09T05:14:13.700Z,21.90
2023-12-09T05:16:44.350Z,23.03
2023-12-09T05:19:13.861Z,21.07
2023-12-09T05:21:50.035Z,21.83
2023-12-09T05:24:22.549Z,20.40
2023-12-09T05:26:50.758Z,22.70
2023-12-09T05:29:34.510Z,22.37
2023-12-09T05:32:12.985Z,20.93
2023-12-09T05:34:43.935Z,20.17
2023-12-09T05:37:20.905Z,20.30
2023-12-09T05:40:00.920Z,19.00
2023-12-09T05:42:46.257Z,19.17
2023-12-09T05:45:29.999Z,20.10
2023-12-09T05:48:01.993Z,18.83
2023-12-09T05:50:34.269Z,19.33
2023-12-09T05:53:11.812Z,20.53
2023-12-09T05:55:52.432Z,21.13
2023-12-09T05:58:21.028Z,20.33
2023-12-09T06:01:00.327Z,19.10
2023-12-09T06:03:31.006Z,20.57
2023-12-09T06:06:00.925Z,18.25
2023-12-09T06:08:37.168Z,17.80
2023-12-09T06:11:18.150Z,18.23
2023-12-09T06:13:47.516Z,19.77
2023-12-09T06:16:37.992Z,17.60
2023-12-09T06:19:08.490Z,20.00
2023-12-09T06:21:40.181Z,19.10
2023-12-09T06:24:19.114Z,18.37
2023-12-09T06:26:54.347Z,18.10
2023-12-09T06:29:27.757Z,16.83
2023-12-09T06:32:00.819Z,17.70
2023-12-09T06:34:37.847Z,17.57
2023-12-09T06:37:06.930Z,16.70
2023-12-09T06:39:36.526Z,17.50
2023-12-09T06:42:07.003Z,18.33
2023-12-09T06:44:39.146Z,17.20
2023-12-09T06:47:14.022Z,18.57
2023-12-09T06:49:43.006Z,17.20
2023-12-09T06:52:19.274Z,16.10
2023-12-09T06:54:49.181Z,16.87
2023-12-09T06:57:20.181Z,18.23
2023-12-09T06:59:50.275Z,17.40
2023-12-09T07:02:23.221Z,17.67
2023-12-09T07:04:53.303Z,17.80
2023-12-09T07:07:26.449Z,17.70
2023-12-09T07:09:57.242Z,17.17
2023-12-09T07:12:28.477Z,17.70
2023-12-09T07:15:00.743Z,17.37
2023-12-09T07:17:41.718Z,17.60
2023-12-09T07:20:21.896Z,18.30
2023-12-09T07:22:53.108Z,17.47
2023-12-09T07:25:23.303Z,17.57
2023-12-09T07:27:53.127Z,17.13
2023-12-09T07:30:23.841Z,17.40
2023-12-09T07:32:58.962Z,17.37
2023-12-09T07:35:29.411Z,16.83
2023-12-09T07:37:59.031Z,17.00
2023-12-09T07:40:31.130Z,17.13
2023-12-09T07:43:03.577Z,18.20
2023-12-09T07:45:34.663Z,16.13
2023-12-09T07:48:12.558Z,15.43
2023-12-09T07:50:42.178Z,15.53
2023-12-09T07:53:12.611Z,17.37
2023-12-09T07:55:51.004Z,17.40
2023-12-09T07:58:21.264Z,17.27
2023-12-09T08:00:50.866Z,17.80
2023-12-09T08:03:23.699Z,16.93
2023-12-09T08:05:57.851Z,18.77
2023-12-09T08:08:29.004Z,18.87
2023-12-09T08:11:02.304Z,18.37
2023-12-09T08:13:32.858Z,18.30
2023-12-09T08:16:13.503Z,19.63
2023-12-09T08:18:47.955Z,21.30
2023-12-09T08:21:29.823Z,20.00
2023-12-09T08:24:05.893Z,19.43
2023-12-09T08:26:40.571Z,19.73
2023-12-09T08:29:22.767Z,18.73
2023-12-09T08:32:06.226Z,18.50
2023-12-09T08:35:00.227Z,19.40
2023-12-09T08:37:38.857Z,21.27
2023-12-09T08:40:11.822Z,19.10
2023-12-09T08:42:41.464Z,19.97
2023-12-09T08:45:21.769Z,19.40
2023-12-09T08:47:52.662Z,21.00
2023-12-09T08:50:28.086Z,20.73
2023-12-09T08:53:00.432Z,20.33
2023-12-09T08:55:31.691Z,20.93
2023-12-09T08:58:04.428Z,22.07
2023-12-09T09:00:36.487Z,21.57
2023-12-09T09:03:15.655Z,22.20
2023-12-09T09:05:54.169Z,21.70
2023-12-09T09:08:26.067Z,20.33
2023-12-09T09:10:57.893Z,20.30
2023-12-09T09:13:34.359Z,21.27
2023-12-09T09:16:03.454Z,18.40
2023-12-09T09:18:39.174Z,20.90
2023-12-09T09:21:11.985Z,18.70
2023-12-09T09:23:47.558Z,20.20
2023-12-09T09:26:23.577Z,18.47
2023-12-09T09:28:54.146Z,18.23
2023-12-09T09:31:25.013Z,16.83
2023-12-09T09:33:53.596Z,17.70
2023-12-09T09:36:27.732Z,18.60
2023-12-09T09:39:00.018Z,18.63
2023-12-09T09:41:33.928Z,18.63
2023-12-09T09:44:13.638Z,19.27
2023-12-09T09:46:44.404Z,17.67
2023-12-09T09:49:14.875Z,17.90
2023-12-09T09:51:48.890Z,16.80
2023-12-09T09:54:25.185Z,19.60
2023-12-09T09:57:01.521Z,17.13
2023-12-09T09:59:33.949Z,17.40
2023-12-09T10:02:07.534Z,17.13
2023-12-09T10:04:39.521Z,17.20
2023-12-09T10:07:18.082Z,16.60
2023-12-09T10:12:33.590Z,17.30
2023-12-09T10:15:03.886Z,17.73
2023-12-09T10:17:36.041Z,17.23
2023-12-09T10:20:14.529Z,17.37
2023-12-09T10:22:47.053Z,15.47
2023-12-09T10:25:26.131Z,15.70
2023-12-09T10:28:05.739Z,15.10
2023-12-09T10:30:37.030Z,15.80
2023-12-09T10:33:20.853Z,14.53
2023-12-09T10:35:51.661Z,16.03
2023-12-09T10:38:26.519Z,17.00
2023-12-09T10:41:04.752Z,16.13
2023-12-09T10:43:33.633Z,17.57
2023-12-09T10:46:05.282Z,16.30
2023-12-09T10:48:42.814Z,16.80
2023-12-09T10:51:14.100Z,15.63
2023-12-09T10:53:48.020Z,15.27
2023-12-09T10:56:19.992Z,15.23
2023-12-09T10:58:49.407Z,15.00
2023-12-09T11:01:21.260Z,14.90
2023-12-09T11:03:55.375Z,14.87
2023-12-09T11:06:33.101Z,15.17
2023-12-09T11:09:10.190Z,14.60
2023-12-09T11:11:50.805Z,14.47
2023-12-09T11:14:33.569Z,15.27
2023-12-09T11:17:13.774Z,14.53
2023-12-09T11:19:52.739Z,14.63
2023-12-09T11:22:21.849Z,15.37
2023-12-09T11:25:07.734Z,15.23
2023-12-09T11:27:51.671Z,14.20
2023-12-09T11:30:44.002Z,15.73
2023-12-09T11:33:16.101Z,14.67
2023-12-09T11:35:47.630Z,15.23
2023-12-09T11:38:17.806Z,15.70
2023-12-09T11:40:52.227Z,16.20
2023-12-09T11:43:22.078Z,15.60
2023-12-09T11:45:55.127Z,14.20
2023-12-09T11:48:26.161Z,18.60
2023-12-09T11:50:56.873Z,19.10
2023-12-09T11:53:29.358Z,21.17
2023-12-09T11:56:09.538Z,21.37
2023-12-09T11:58:41.556Z,21.10
2023-12-09T12:01:19.575Z,17.63
2023-12-09T12:03:57.845Z,17.37
2023-12-09T12:06:35.460Z,16.60
2023-12-09T12:09:07.892Z,17.10
2023-12-09T12:11:44.375Z,18.07
2023-12-09T12:14:13.280Z,18.10
2023-12-09T12:16:45.230Z,19.63
2023-12-09T12:19:22.451Z,21.80
2023-12-09T12:22:08.910Z,22.13
2023-12-09T12:24:43.992Z,22.73
2023-12-09T12:27:16.638Z,21.23
2023-12-09T12:29:55.669Z,20.43
2023-12-09T12:32:28.481Z,17.40
2023-12-09T12:35:01.839Z,17.53
2023-12-09T12:37:33.268Z,16.37
2023-12-09T12:40:07.533Z,16.80
2023-12-09T12:42:40.869Z,17.00
2023-12-09T12:45:23.041Z,17.57
2023-12-09T12:47:53.351Z,17.17
2023-12-09T12:50:25.296Z,18.17
2023-12-09T12:52:55.398Z,18.10
2023-12-09T12:55:25.331Z,18.50
2023-12-09T12:58:03.823Z,19.90
2023-12-09T13:00:38.486Z,16.10
2023-12-09T13:03:15.830Z,15.50
2023-12-09T13:05:46.093Z,16.13
2023-12-09T13:08:20.234Z,16.37
2023-12-09T13:11:05.495Z,15.00
2023-12-09T13:13:40.205Z,14.40
2023-12-09T13:16:11.980Z,13.63
2023-12-09T13:18:42.774Z,14.50
2023-12-09T13:21:11.802Z,15.33
2023-12-09T13:23:41.115Z,14.03
2023-12-09T13:26:18.843Z,13.63
2023-12-09T13:29:04.662Z,13.50
2023-12-09T13:31:37.190Z,14.23
2023-12-09T13:34:14.651Z,13.30
2023-12-09T13:36:46.378Z,13.20
2023-12-09T13:39:20.620Z,13.00
2023-12-09T13:41:51.521Z,14.83
2023-12-09T13:44:42.276Z,14.03
2023-12-09T13:47:16.816Z,13.70
2023-12-09T13:49:53.170Z,15.43
2023-12-09T13:52:27.024Z,14.00
2023-12-09T13:54:59.402Z,14.50
2023-12-09T13:57:29.188Z,17.40
2023-12-09T14:00:12.318Z,17.53
2023-12-09T14:02:44.614Z,16.40
2023-12-09T14:05:18.590Z,18.40
2023-12-09T14:07:49.209Z,16.77
2023-12-09T14:10:24.500Z,17.07
2023-12-09T14:12:58.122Z,16.40
2023-12-09T14:15:28.313Z,18.20
2023-12-09T14:18:00.761Z,17.17
2023-12-09T14:20:37.699Z,16.93
2023-12-09T14:23:14.128Z,18.40
2023-12-09T14:25:43.669Z,19.00
2023-12-09T14:28:17.785Z,18.80
2023-12-09T14:30:54.396Z,17.40
2023-12-09T14:33:23.897Z,17.30
2023-12-09T14:35:52.601Z,17.63
2023-12-09T14:38:29.536Z,18.50
2023-12-09T14:40:58.748Z,19.47
2023-12-09T14:43:35.348Z,20.37
2023-12-09T14:46:11.010Z,18.13
2023-12-09T14:48:47.058Z,18.97
2023-12-09T14:51:22.134Z,19.63
2023-12-09T14:53:57.930Z,18.83
2023-12-09T14:56:32.298Z,19.00
2023-12-09T14:59:04.341Z,19.50
2023-12-09T15:01:37.249Z,19.90
2023-12-09T15:04:15.677Z,21.57
2023-12-09T15:06:49.919Z,21.00
2023-12-09T15:09:24.384Z,20.83
2023-12-09T15:11:58.402Z,21.17
2023-12-09T15:14:30.144Z,21.37
2023-12-09T15:17:08.206Z,21.87
2023-12-09T15:19:47.088Z,21.03
2023-12-09T15:22:19.911Z,19.70
2023-12-09T15:24:53.344Z,21.20
2023-12-09T15:27:27.476Z,20.40
2023-12-09T15:30:05.513Z,20.17
2023-12-09T15:32:40.936Z,20.60
2023-12-09T15:35:13.448Z,22.33
2023-12-09T15:37:44.764Z,21.70
2023-12-09T15:40:16.838Z,21.90
2023-12-09T15:42:54.693Z,23.00
2023-12-09T15:45:29.097Z,21.47
2023-12-09T15:48:04.883Z,21.30
2023-12-09T15:50:39.485Z,21.23
2023-12-09T15:53:10.246Z,22.27
2023-12-09T15:55:42.796Z,22.40
2023-12-09T15:58:14.184Z,21.10
2023-12-09T16:00:46.159Z,21.50
2023-12-09T16:03:18.321Z,22.13
2023-12-09T16:05:48.550Z,22.40
2023-12-09T16:08:17.815Z,21.83
2023-12-09T16:10:49.831Z,22.87
2023-12-09T16:13:23.974Z,22.93
2023-12-09T16:16:02.914Z,23.40
2023-12-09T16:18:37.913Z,23.07
2023-12-09T16:21:12.788Z,23.73
2023-12-09T16:23:50.436Z,24.83
2023-12-09T16:26:32.712Z,23.37
2023-12-09T16:29:04.722Z,24.87
2023-12-09T16:31:37.730Z,25.50
2023-12-09T16:34:10.400Z,24.33
2023-12-09T16:36:40.310Z,25.43
2023-12-09T16:39:14.229Z,25.00
2023-12-09T16:41:44.372Z,28.30
2023-12-09T16:44:18.866Z,27.50
2023-12-09T16:46:52.157Z,26.50
2023-12-09T16:49:29.928Z,27.30
2023-12-09T16:52:07.457Z,27.60
2023-12-09T16:54:44.899Z,28.07
2023-12-09T16:57:20.838Z,31.60
2023-12-09T16:59:57.169Z,28.97
2023-12-09T17:02:38.149Z,30.97
2023-12-09T17:05:13.704Z,31.87
2023-12-09T17:07:50.210Z,29.90
2023-12-09T17:10:20.406Z,29.10
2023-12-09T17:13:00.342Z,31.03
2023-12-09T17:15:33.160Z,33.60
2023-12-09T17:18:01.696Z,32.27
2023-12-09T17:20:47.474Z,29.67
2023-12-09T17:23:16.555Z,31.40
2023-12-09T17:25:53.194Z,30.20
2023-12-09T17:28:24.158Z,31.73
2023-12-09T17:30:55.706Z,31.93
2023-12-09T17:33:29.605Z,32.77
2023-12-09T17:36:09.355Z,30.93
2023-12-09T17:38:39.098Z,30.40
2023-12-09T17:41:13.582Z,28.97
2023-12-09T17:43:46.123Z,30.00
2023-12-09T17:46:18.580Z,31.73
2023-12-09T17:48:49.384Z,29.33
2023-12-09T17:51:29.122Z,28.47
2023-12-09T17:54:08.369Z,28.50
2023-12-09T17:56:40.946Z,27.03
2023-12-09T17:59:16.974Z,28.50
2023-12-09T18:01:49.139Z,27.13
2023-12-09T18:04:18.907Z,25.40
2023-12-09T18:06:53.137Z,23.83
2023-12-09T18:09:33.022Z,25.17
2023-12-09T18:12:02.817Z,25.50
2023-12-09T18:14:32.077Z,25.83
2023-12-09T18:20:00.018Z,28.87
2023-12-09T18:22:43.234Z,28.07
2023-12-09T18:25:27.936Z,27.37
2023-12-09T18:27:59.164Z,28.57
2023-12-09T18:30:28.135Z,31.30
2023-12-09T18:33:02.716Z,28.77
2023-12-09T18:35:35.391Z,28.20
2023-12-09T18:38:08.696Z,29.03
2023-12-09T18:40:38.451Z,28.70
2023-12-09T18:43:09.510Z,29.50
2023-12-09T18:45:40.241Z,29.93
2023-12-09T18:48:11.579Z,27.70
2023-12-09T18:50:40.774Z,26.20
2023-12-09T18:53:11.823Z,27.40
2023-12-09T18:55:41.307Z,28.03
2023-12-09T18:58:30.236Z,28.70
2023-12-09T19:01:07.645Z,29.70
2023-12-09T19:03:43.020Z,25.57
2023-12-09T19:06:17.911Z,25.87
2023-12-09T19:08:58.395Z,26.50
2023-12-09T19:11:29.542Z,26.20
2023-12-09T19:14:13.192Z,27.17
2023-12-09T19:16:43.429Z,27.30
2023-12-09T19:19:16.100Z,26.33
2023-12-09T19:21:46.919Z,25.00
2023-12-09T19:24:22.717Z,25.27
2023-12-09T19:26:54.598Z,27.37
2023-12-09T19:29:24.101Z,24.97
2023-12-09T19:31:56.383Z,24.60
2023-12-09T19:34:30.712Z,24.43
2023-12-09T19:37:08.751Z,24.60
2023-12-09T19:39:41.644Z,23.60
2023-12-09T19:42:12.139Z,22.70
2023-12-09T19:44:44.538Z,25.17
2023-12-09T19:47:30.702Z,24.70
2023-12-09T19:50:00.134Z,23.43
2023-12-09T19:52:37.971Z,24.07
2023-12-09T19:55:19.482Z,24.57
2023-12-09T19:57:59.527Z,25.07
2023-12-09T20:00:33.176Z,24.00
2023-12-09T20:03:10.409Z,25.30
2023-12-09T20:06:01.654Z,25.90
2023-12-09T20:08:33.311Z,24.53
2023-12-09T20:11:14.893Z,24.60
2023-12-09T20:14:02.816Z,25.97
2023-12-09T20:16:47.837Z,26.03
2023-12-09T20:19:25.491Z,24.57
2023-12-09T20:21:55.889Z,22.77
2023-12-09T20:24:29.881Z,24.67
2023-12-09T20:27:00.618Z,24.53
2023-12-09T20:29:39.156Z,23.93
2023-12-09T20:32:24.458Z,22.93
2023-12-09T20:34:58.862Z,24.60
2023-12-09T20:37:31.297Z,25.00
2023-12-09T20:40:01.712Z,26.03
2023-12-09T20:42:38.229Z,23.63
2023-12-09T20:45:09.241Z,24.13
2023-12-09T20:47:40.832Z,22.47
2023-12-09T20:53:08.492Z,21.47
2023-12-09T20:55:39.176Z,22.20
2023-12-09T20:58:18.069Z,21.50
2023-12-09T21:00:51.465Z,21.30
2023-12-09T21:03:30.068Z,20.93
2023-12-09T21:06:03.423Z,21.90
2023-12-09T21:08:45.802Z,22.30
2023-12-09T21:11:22.678Z,20.77
2023-12-09T21:14:07.964Z,22.60
2023-12-09T21:16:45.682Z,22.27
2023-12-09T21:19:17.060Z,21.87
2023-12-09T21:21:48.589Z,22.90
2023-12-09T21:24:28.939Z,21.17
2023-12-09T21:27:00.826Z,21.70
2023-12-09T21:29:41.653Z,18.90
2023-12-09T21:32:12.491Z,19.27
2023-12-09T21:34:45.146Z,19.70
2023-12-09T21:37:26.082Z,22.30
2023-12-09T21:40:01.621Z,19.87
2023-12-09T21:42:34.348Z,19.80
2023-12-09T21:45:17.519Z,21.13
2023-12-09T21:47:48.362Z,19.50
2023-12-09T21:50:21.616Z,20.87
2023-12-09T21:52:51.539Z,18.80
2023-12-09T21:55:23.868Z,18.60
2023-12-09T21:57:57.624Z,19.00
2023-12-09T22:00:31.889Z,20.37
2023-12-09T22:03:01.082Z,19.10
2023-12-09T22:05:42.569Z,18.53
2023-12-09T22:08:12.227Z,18.90
2023-12-09T22:10:45.446Z,18.83
2023-12-09T22:13:22.504Z,19.77
2023-12-09T22:16:09.772Z,21.03
2023-12-09T22:18:41.171Z,19.50
2023-12-09T22:21:12.882Z,21.03
2023-12-09T22:23:43.653Z,21.13
2023-12-09T22:26:14.476Z,19.30
2023-12-09T22:28:43.190Z,19.87
2023-12-09T22:31:19.214Z,21.20
2023-12-09T22:33:51.542Z,20.60
2023-12-09T22:36:22.282Z,19.00
2023-12-09T22:38:52.540Z,20.10
2023-12-09T22:41:30.523Z,20.50
2023-12-09T22:44:00.767Z,19.80
2023-12-09T22:46:34.889Z,19.57
2023-12-09T22:49:05.917Z,20.47
2023-12-09T22:51:37.874Z,20.23
2023-12-09T22:54:09.347Z,17.33
2023-12-09T22:56:46.490Z,17.67
2023-12-09T22:59:20.253Z,19.03
2023-12-09T23:01:51.217Z,19.67
2023-12-09T23:04:22.089Z,18.17
2023-12-09T23:06:52.354Z,18.47
2023-12-09T23:09:23.492Z,18.70
2023-12-09T23:11:57.454Z,18.37
2023-12-09T23:14:38.296Z,18.10
2023-12-09T23:17:15.648Z,18.60
2023-12-09T23:19:52.951Z,18.70
2023-12-09T23:22:24.907Z,18.73
2023-12-09T23:24:55.685Z,18.63
2023-12-09T23:27:29.502Z,17.90
2023-12-09T23:30:10.470Z,18.77
2023-12-09T23:32:41.513Z,19.40
2023-12-09T23:35:11.449Z,19.73
2023-12-09T23:37:40.067Z,20.00
2023-12-09T23:40:11.577Z,23.67
2023-12-09T23:42:42.699Z,21.40
2023-12-09T23:45:13.415Z,23.00
2023-12-09T23:47:48.281Z,20.40
2023-12-09T23:50:26.489Z,21.67
2023-12-09T23:52:55.125Z,23.00
2023-12-09T23:55:26.747Z,21.80
2023-12-09T23:57:57.421Z,23.03
